createdAt,value
2019-05-16T00:02:14.134Z,59613.79
2019-05-16T00:07:10.057Z,59565.39
2019-05-16T00:12:08.577Z,59547.41
2019-05-16T00:17:04.127Z,59581.54
2019-05-16T00:22:00.166Z,59566.86
2019-05-16T00:26:58.009Z,59492.28
2019-05-16T00:31:54.028Z,59522.77
2019-05-16T00:36:49.949Z,59475.57
2019-05-16T00:41:47.878Z,59470.36
2019-05-16T00:46:43.895Z,59463.99
2019-05-16T00:51:39.926Z,59495.94
2019-05-16T00:56:38.259Z,59450.52
2019-05-16T01:01:33.996Z,59435.63
2019-05-16T01:06:29.893Z,59449.95
2019-05-16T01:11:27.772Z,59442.78
2019-05-16T01:16:23.665Z,59416.55
2019-05-16T01:21:19.597Z,59423.17
2019-05-16T01:26:15.551Z,59431.33
2019-05-16T01:31:11.476Z,59450.16
2019-05-16T01:36:09.016Z,59425.92
2019-05-16T01:41:05.232Z,59441.87
2019-05-16T01:46:01.174Z,59424.13
2019-05-16T01:50:58.362Z,59383.01
2019-05-16T01:55:54.588Z,59385.98
2019-05-16T02:01:03.033Z,59402.15
2019-05-16T02:05:48.456Z,59414.45
2019-05-16T02:10:44.384Z,59413.00
2019-05-16T02:15:40.317Z,59397.43
2019-05-16T02:20:39.030Z,59406.89
2019-05-16T02:25:34.186Z,59413.30
2019-05-16T02:30:31.520Z,59374.65
2019-05-16T02:35:27.653Z,59399.98
2019-05-16T02:40:23.911Z,59368.41
2019-05-16T02:45:23.871Z,59406.70
2019-05-16T02:50:18.082Z,59387.55
2019-05-16T02:55:14.121Z,59407.54
2019-05-16T03:00:12.125Z,59403.37
2019-05-16T03:05:11.626Z,59409.80
2019-05-16T03:10:07.024Z,59368.23
2019-05-16T03:15:05.114Z,59360.32
2019-05-16T03:20:01.617Z,59352.98
2019-05-16T03:25:00.686Z,59361.14
2019-05-16T03:29:55.731Z,59329.73
2019-05-16T03:34:54.835Z,59337.79
2019-05-16T03:39:51.489Z,59287.17
2019-05-16T03:44:47.369Z,59330.98
2019-05-16T03:49:43.298Z,59330.35
2019-05-16T03:54:42.018Z,59343.68
2019-05-16T03:59:40.701Z,59307.33
2019-05-16T04:04:35.530Z,59374.39
2019-05-16T04:09:31.752Z,59329.07
2019-05-16T04:14:30.704Z,59368.86
2019-05-16T04:19:25.667Z,59342.16
2019-05-16T04:24:21.952Z,59335.79
2019-05-16T04:29:20.669Z,59340.17
2019-05-16T04:34:16.448Z,59335.16
2019-05-16T04:39:12.370Z,59361.65
2019-05-16T04:44:11.633Z,59353.95
2019-05-16T04:49:06.865Z,59354.50
2019-05-16T04:54:06.751Z,59371.14
2019-05-16T04:59:15.952Z,59407.65
2019-05-16T05:04:14.291Z,59391.56
2019-05-16T05:09:05.556Z,59415.09
2019-05-16T05:14:01.484Z,59432.36
2019-05-16T05:19:00.148Z,59435.23
2019-05-16T05:23:55.349Z,59473.49
2019-05-16T05:28:55.496Z,59393.19
2019-05-16T05:33:51.426Z,59434.11
2019-05-16T05:38:49.115Z,59412.51
2019-05-16T05:43:45.199Z,59419.79
2019-05-16T05:48:41.286Z,59469.25
2019-05-16T05:53:37.266Z,59458.45
2019-05-16T05:58:37.489Z,59442.52
2019-05-16T06:03:33.650Z,59500.76
2019-05-16T06:08:30.580Z,59444.34
2019-05-16T06:13:30.832Z,59500.67
2019-05-16T06:18:26.456Z,59479.92
2019-05-16T06:23:22.427Z,59404.16
2019-05-16T06:28:20.819Z,59404.16
2019-05-16T06:33:19.771Z,59472.15
2019-05-16T06:38:15.090Z,59460.23
2019-05-16T06:43:11.451Z,59449.21
2019-05-16T06:48:09.889Z,59455.23
2019-05-16T06:53:05.712Z,59444.95
2019-05-16T06:58:02.294Z,59462.71
2019-05-16T07:03:00.427Z,59420.40
2019-05-16T07:07:59.722Z,59400.38
2019-05-16T07:12:55.720Z,59469.59
2019-05-16T07:17:52.182Z,59486.70
2019-05-16T07:22:50.334Z,59525.05
2019-05-16T07:27:47.479Z,59529.67
2019-05-16T07:32:44.330Z,59553.70
2019-05-16T07:37:40.444Z,59562.56
2019-05-16T07:42:36.383Z,59526.08
2019-05-16T07:47:32.294Z,59527.07
2019-05-16T07:52:35.238Z,59599.97
2019-05-16T07:57:26.154Z,59539.02
2019-05-16T08:02:22.119Z,59583.16
2019-05-16T08:07:20.140Z,59572.34
2019-05-16T08:12:16.107Z,59645.64
2019-05-16T08:17:12.046Z,59617.68
2019-05-16T08:22:10.617Z,59568.55
2019-05-16T08:27:05.893Z,59536.41
2019-05-16T08:32:02.365Z,59550.76
2019-05-16T08:37:01.116Z,59558.74
2019-05-16T08:42:03.436Z,59641.37
2019-05-16T08:46:57.917Z,59721.81
2019-05-16T08:51:53.045Z,59686.01
2019-05-16T09:01:53.401Z,59570.81
2019-05-16T09:06:45.296Z,59547.95
2019-05-16T09:10:14.344Z,59598.31
2019-05-16T09:11:44.891Z,59643.03
2019-05-16T09:16:39.267Z,59602.71
2019-05-16T09:21:38.200Z,59607.25
2019-05-16T09:26:33.106Z,59605.75
2019-05-16T09:31:30.677Z,59633.13
2019-05-16T09:36:28.017Z,59656.05
2019-05-16T09:41:27.146Z,59634.27
2019-05-16T09:46:22.453Z,59671.96
2019-05-16T09:51:21.344Z,59685.95
2019-05-16T09:56:16.772Z,59686.75
2019-05-16T10:01:13.055Z,59669.29
2019-05-16T10:06:08.991Z,59564.00
2019-05-16T10:11:06.352Z,59607.27
2019-05-16T10:16:02.472Z,59602.32
2019-05-16T10:20:59.294Z,59606.59
2019-05-16T10:25:56.784Z,59639.22
2019-05-16T10:30:53.010Z,59673.29
2019-05-16T10:35:49.156Z,59671.67
2019-05-16T10:40:47.328Z,59726.09
2019-05-16T10:45:42.998Z,59665.07
2019-05-16T10:50:39.075Z,59660.77
2019-05-16T10:55:36.801Z,59643.79
2019-05-16T11:00:57.653Z,59672.45
2019-05-16T11:05:36.066Z,59698.59
2019-05-16T11:10:29.734Z,59658.06
2019-05-16T11:15:27.856Z,59687.42
2019-05-16T11:20:26.825Z,59686.83
2019-05-16T11:25:28.576Z,59694.43
2019-05-16T11:30:22.026Z,59803.42
2019-05-16T11:35:18.298Z,59743.02
2019-05-16T11:40:17.846Z,59721.72
2019-05-16T11:45:13.914Z,59670.40
2019-05-16T11:50:09.951Z,59743.67
2019-05-16T11:55:07.634Z,59635.01
2019-05-16T12:00:08.022Z,59654.77
2019-05-16T12:05:04.759Z,59650.24
2019-05-16T12:10:00.864Z,59679.37
2019-05-16T12:14:58.347Z,59697.51
2019-05-16T12:19:57.535Z,59662.75
2019-05-16T12:24:53.190Z,59634.53
2019-05-16T12:29:54.837Z,59621.25
2019-05-16T12:34:47.014Z,59596.73
2019-05-16T12:39:43.043Z,59576.77
2019-05-16T12:44:39.340Z,59590.49
2019-05-16T12:49:37.766Z,59651.14
2019-05-16T12:54:36.875Z,59593.10
2019-05-16T12:59:42.183Z,59562.37
2019-05-16T13:04:42.316Z,59577.41
2019-05-16T13:09:40.277Z,59598.24
2019-05-16T13:14:40.388Z,59571.88
2019-05-16T13:19:44.054Z,59549.48
2019-05-16T13:24:39.823Z,59520.81
2019-05-16T13:29:41.302Z,59508.66
2019-05-16T13:34:38.694Z,59456.70
2019-05-16T13:39:36.029Z,59472.97
2019-05-16T13:44:33.142Z,59468.86
2019-05-16T13:49:29.074Z,59473.36
2019-05-16T13:54:28.153Z,59473.48
2019-05-16T13:59:37.368Z,59507.06
2019-05-16T14:04:34.393Z,59477.84
2019-05-16T14:09:32.739Z,59492.02
2019-05-16T14:14:38.179Z,59462.95
2019-05-16T14:19:33.128Z,59480.28
2019-05-16T14:24:30.296Z,59486.12
2019-05-16T14:29:28.685Z,59514.94
2019-05-16T14:34:27.865Z,59478.73
2019-05-16T14:39:28.645Z,59482.77
2019-05-16T14:44:28.683Z,59464.58
2019-05-16T14:49:29.026Z,59459.43
2019-05-16T14:54:31.403Z,59462.84
2019-05-16T14:59:36.505Z,59476.61
2019-05-16T15:04:33.421Z,59448.04
2019-05-16T15:09:32.564Z,59503.51
2019-05-16T15:14:32.438Z,59448.29
2019-05-16T15:19:29.527Z,59434.48
2019-05-16T15:24:26.991Z,59475.32
2019-05-16T15:29:27.232Z,59469.58
2019-05-16T15:34:24.084Z,59442.87
2019-05-16T15:39:20.948Z,59412.27
2019-05-16T15:44:17.844Z,59425.89
2019-05-16T15:49:14.178Z,59452.82
2019-05-16T15:54:14.443Z,59406.61
2019-05-16T15:59:17.985Z,59436.03
2019-05-16T16:09:30.900Z,59421.15
2019-05-16T16:14:27.484Z,59433.69
2019-05-16T16:19:23.568Z,59413.61
2019-05-16T16:24:19.630Z,59481.20
2019-05-16T16:29:16.891Z,59423.72
2019-05-16T16:34:13.067Z,59436.02
2019-05-16T16:39:09.122Z,59439.81
2019-05-16T16:44:07.470Z,59452.34
2019-05-16T16:49:03.131Z,59513.21
2019-05-16T16:53:59.169Z,59487.54
2019-05-16T16:58:55.121Z,59496.97
2019-05-16T17:03:54.542Z,59492.29
2019-05-16T17:08:48.935Z,59470.30
2019-05-16T17:13:47.052Z,59498.77
2019-05-16T17:18:42.723Z,59474.48
2019-05-16T17:23:38.652Z,59517.95
2019-05-16T17:28:37.089Z,59443.57
2019-05-16T17:33:32.551Z,59492.50
2019-05-16T17:38:28.485Z,59470.54
2019-05-16T17:43:26.840Z,59432.94
2019-05-16T17:48:22.358Z,59502.58
2019-05-16T17:53:18.288Z,59486.37
2019-05-16T17:58:16.338Z,59503.64
2019-05-16T18:03:12.190Z,59475.04
2019-05-16T18:08:08.090Z,59506.21
2019-05-16T18:13:04.417Z,59464.02
2019-05-16T18:18:00.346Z,59471.46
2019-05-16T18:22:56.922Z,59501.13
2019-05-16T18:27:53.009Z,59506.21
2019-05-16T18:32:49.037Z,59531.08
2019-05-16T18:37:46.491Z,59481.41
2019-05-16T18:42:42.505Z,59478.24
2019-05-16T18:47:38.445Z,59499.38
2019-05-16T18:52:37.241Z,59479.74
2019-05-16T18:57:32.723Z,59487.18
2019-05-16T19:02:29.537Z,59513.78
2019-05-16T19:07:27.333Z,59519.70
2019-05-16T19:12:23.327Z,59454.19
2019-05-16T19:17:24.231Z,59490.37
2019-05-16T19:22:17.196Z,59483.65
2019-05-16T19:27:13.142Z,59483.65
2019-05-16T19:32:09.079Z,59488.50
2019-05-16T19:37:16.184Z,59479.77
2019-05-16T19:42:36.786Z,59479.77
2019-05-16T19:47:40.855Z,59541.46
2019-05-16T19:57:57.186Z,59451.15
2019-05-16T20:02:56.874Z,59509.31
2019-05-16T20:07:55.349Z,59505.51
2019-05-16T20:12:56.927Z,59468.16
2019-05-16T20:17:58.682Z,59493.26
2019-05-16T20:22:57.391Z,59492.18
2019-05-16T20:27:54.600Z,59463.21
2019-05-16T20:32:50.748Z,59460.38
2019-05-16T20:37:47.389Z,59498.56
2019-05-16T20:42:43.660Z,59466.30
2019-05-16T20:47:40.008Z,59460.39
2019-05-16T20:52:37.761Z,59470.09
2019-05-16T20:57:34.375Z,59452.48
2019-05-16T21:02:30.472Z,59461.34
2019-05-16T21:07:26.693Z,59478.37
2019-05-16T21:12:22.900Z,59534.17
2019-05-16T21:17:18.932Z,59478.34
2019-05-16T21:22:16.223Z,59459.76
2019-05-16T21:27:13.034Z,59516.41
2019-05-16T21:32:09.121Z,59505.05
2019-05-16T21:37:14.560Z,59485.64
2019-05-16T21:42:03.698Z,59486.38
2019-05-16T21:47:00.065Z,59569.39
2019-05-16T21:51:57.122Z,59487.20
2019-05-16T21:56:53.627Z,59501.76
2019-05-16T22:01:49.705Z,59509.68
2019-05-16T22:06:47.531Z,59508.48
2019-05-16T22:11:43.843Z,59520.42
2019-05-16T22:16:40.271Z,59490.28
2019-05-16T22:21:36.401Z,59522.80
2019-05-16T22:26:32.609Z,59497.96
2019-05-16T22:31:28.965Z,59520.80
2019-05-16T22:36:26.595Z,59511.10
2019-05-16T22:41:23.083Z,59523.98
2019-05-16T22:46:19.284Z,59526.58
2019-05-16T22:51:16.497Z,59509.79
2019-05-16T22:56:12.895Z,59506.12
2019-05-16T23:01:09.219Z,59512.40
2019-05-16T23:06:07.713Z,59479.20
2019-05-16T23:11:03.629Z,59475.52
2019-05-16T23:15:59.818Z,59500.82
2019-05-16T23:20:57.091Z,59487.35
2019-05-16T23:25:53.451Z,59466.16
2019-05-16T23:30:49.568Z,59539.71
2019-05-16T23:35:46.838Z,59513.82
2019-05-16T23:40:43.262Z,59503.91
2019-05-16T23:45:39.477Z,59476.95
2019-05-16T23:50:37.270Z,59531.20
2019-05-16T23:55:33.343Z,59478.25
